sensor_id;sensor_type;location;lat;lon;timestamp;temperature;humidity
584;HTU21D;27024;54.068;12.116;2024-03-02T00:02:15;5.43;118.99
584;HTU21D;27024;54.068;12.116;2024-03-02T00:04:45;5.34;118.99
584;HTU21D;27024;54.068;12.116;2024-03-02T00:07:14;5.38;118.99
584;HTU21D;27024;54.068;12.116;2024-03-02T00:09:40;5.33;118.99
584;HTU21D;27024;54.068;12.116;2024-03-02T00:12:08;5.30;118.99
584;HTU21D;27024;54.068;12.116;2024-03-02T00:14:38;5.37;118.99
584;HTU21D;27024;54.068;12.116;2024-03-02T00:17:09;5.38;118.99
584;HTU21D;27024;54.068;12.116;2024-03-02T00:19:43;5.32;118.99
584;HTU21D;27024;54.068;12.116;2024-03-02T00:22:10;5.35;118.99
584;HTU21D;27024;54.068;12.116;2024-03-02T00:24:37;5.26;118.99
584;HTU21D;27024;54.068;12.116;2024-03-02T00:27:05;5.32;118.99
584;HTU21D;27024;54.068;12.116;2024-03-02T00:29:34;5.33;118.99
584;HTU21D;27024;54.068;12.116;2024-03-02T00:32:02;5.36;118.99
584;HTU21D;27024;54.068;12.116;2024-03-02T00:34:29;5.42;118.99
584;HTU21D;27024;54.068;12.116;2024-03-02T00:36:57;5.37;118.99
584;HTU21D;27024;54.068;12.116;2024-03-02T00:39:26;5.47;118.99
584;HTU21D;27024;54.068;12.116;2024-03-02T00:41:53;5.52;118.99
584;HTU21D;27024;54.068;12.116;2024-03-02T00:44:25;5.47;118.99
584;HTU21D;27024;54.068;12.116;2024-03-02T00:46:53;5.49;118.99
584;HTU21D;27024;54.068;12.116;2024-03-02T00:49:24;5.41;118.99
584;HTU21D;27024;54.068;12.116;2024-03-02T00:51:52;5.36;118.99
584;HTU21D;27024;54.068;12.116;2024-03-02T00:54:21;5.36;118.99
584;HTU21D;27024;54.068;12.116;2024-03-02T00:56:51;5.40;118.99
584;HTU21D;27024;54.068;12.116;2024-03-02T00:59:18;5.40;118.99
584;HTU21D;27024;54.068;12.116;2024-03-02T01:01:45;5.43;118.99
584;HTU21D;27024;54.068;12.116;2024-03-02T01:04:12;5.42;118.99
584;HTU21D;27024;54.068;12.116;2024-03-02T01:06:42;5.45;118.99
584;HTU21D;27024;54.068;12.116;2024-03-02T01:09:09;5.46;118.99
584;HTU21D;27024;54.068;12.116;2024-03-02T01:11:36;5.47;118.99
584;HTU21D;27024;54.068;12.116;2024-03-02T01:14:03;5.48;118.99
584;HTU21D;27024;54.068;12.116;2024-03-02T01:16:30;5.49;118.99
584;HTU21D;27024;54.068;12.116;2024-03-02T01:18:57;5.52;118.99
584;HTU21D;27024;54.068;12.116;2024-03-02T01:21:25;5.51;118.99
584;HTU21D;27024;54.068;12.116;2024-03-02T01:23:52;5.51;118.99
584;HTU21D;27024;54.068;12.116;2024-03-02T01:26:19;5.55;118.99
584;HTU21D;27024;54.068;12.116;2024-03-02T01:28:46;5.51;118.99
584;HTU21D;27024;54.068;12.116;2024-03-02T01:31:13;5.51;118.99
584;HTU21D;27024;54.068;12.116;2024-03-02T01:33:40;5.49;118.99
584;HTU21D;27024;54.068;12.116;2024-03-02T01:36:07;5.51;118.99
584;HTU21D;27024;54.068;12.116;2024-03-02T01:38:35;5.53;118.99
584;HTU21D;27024;54.068;12.116;2024-03-02T01:41:02;5.51;118.99
584;HTU21D;27024;54.068;12.116;2024-03-02T01:43:29;5.48;118.99
584;HTU21D;27024;54.068;12.116;2024-03-02T01:45:56;5.51;118.99
584;HTU21D;27024;54.068;12.116;2024-03-02T01:48:23;5.51;118.99
584;HTU21D;27024;54.068;12.116;2024-03-02T01:50:50;5.53;118.99
584;HTU21D;27024;54.068;12.116;2024-03-02T01:53:19;5.53;118.99
584;HTU21D;27024;54.068;12.116;2024-03-02T01:55:46;5.55;118.99
584;HTU21D;27024;54.068;12.116;2024-03-02T01:58:13;5.45;118.99
584;HTU21D;27024;54.068;12.116;2024-03-02T02:00:41;5.48;118.99
584;HTU21D;27024;54.068;12.116;2024-03-02T02:03:08;5.50;118.99
584;HTU21D;27024;54.068;12.116;2024-03-02T02:05:36;5.55;118.99
584;HTU21D;27024;54.068;12.116;2024-03-02T02:08:04;5.57;118.99
584;HTU21D;27024;54.068;12.116;2024-03-02T02:10:31;5.56;118.99
584;HTU21D;27024;54.068;12.116;2024-03-02T02:12:58;5.56;118.99
584;HTU21D;27024;54.068;12.116;2024-03-02T02:15:28;5.51;118.99
584;HTU21D;27024;54.068;12.116;2024-03-02T02:17:56;5.55;118.99
584;HTU21D;27024;54.068;12.116;2024-03-02T02:20:25;5.52;118.99
584;HTU21D;27024;54.068;12.116;2024-03-02T02:23:01;5.49;118.99
584;HTU21D;27024;54.068;12.116;2024-03-02T02:25:29;5.49;118.99
584;HTU21D;27024;54.068;12.116;2024-03-02T02:27:57;5.48;118.99
584;HTU21D;27024;54.068;12.116;2024-03-02T02:30:31;5.46;118.99
584;HTU21D;27024;54.068;12.116;2024-03-02T02:32:59;5.39;118.99
584;HTU21D;27024;54.068;12.116;2024-03-02T02:35:26;5.41;118.99
584;HTU21D;27024;54.068;12.116;2024-03-02T02:37:55;5.43;118.99
584;HTU21D;27024;54.068;12.116;2024-03-02T02:40:23;5.40;118.99
584;HTU21D;27024;54.068;12.116;2024-03-02T02:42:50;5.41;118.99
584;HTU21D;27024;54.068;12.116;2024-03-02T02:45:20;5.45;118.99
584;HTU21D;27024;54.068;12.116;2024-03-02T02:47:49;5.42;118.99
584;HTU21D;27024;54.068;12.116;2024-03-02T02:50:16;5.40;118.99
584;HTU21D;27024;54.068;12.116;2024-03-02T02:52:43;5.40;118.99
584;HTU21D;27024;54.068;12.116;2024-03-02T02:55:12;5.37;118.99
584;HTU21D;27024;54.068;12.116;2024-03-02T02:57:41;5.37;118.99
584;HTU21D;27024;54.068;12.116;2024-03-02T03:00:14;5.39;118.99
584;HTU21D;27024;54.068;12.116;2024-03-02T03:02:46;5.39;118.99
584;HTU21D;27024;54.068;12.116;2024-03-02T03:05:15;5.41;118.99
584;HTU21D;27024;54.068;12.116;2024-03-02T03:07:43;5.40;118.99
584;HTU21D;27024;54.068;12.116;2024-03-02T03:10:16;5.37;118.99
584;HTU21D;27024;54.068;12.116;2024-03-02T03:12:43;5.38;118.99
584;HTU21D;27024;54.068;12.116;2024-03-02T03:15:11;5.38;118.99
584;HTU21D;27024;54.068;12.116;2024-03-02T03:17:40;5.39;118.99
584;HTU21D;27024;54.068;12.116;2024-03-02T03:20:08;5.38;118.99
584;HTU21D;27024;54.068;12.116;2024-03-02T03:22:39;5.36;118.99
584;HTU21D;27024;54.068;12.116;2024-03-02T03:25:06;5.34;118.99
584;HTU21D;27024;54.068;12.116;2024-03-02T03:27:36;5.37;118.99
584;HTU21D;27024;54.068;12.116;2024-03-02T03:30:04;5.33;118.99
584;HTU21D;27024;54.068;12.116;2024-03-02T03:32:33;5.32;118.99
584;HTU21D;27024;54.068;12.116;2024-03-02T03:35:00;5.35;118.99
584;HTU21D;27024;54.068;12.116;2024-03-02T03:37:28;5.38;118.99
584;HTU21D;27024;54.068;12.116;2024-03-02T03:40:04;5.34;118.99
584;HTU21D;27024;54.068;12.116;2024-03-02T03:42:37;5.40;118.99
584;HTU21D;27024;54.068;12.116;2024-03-02T03:45:05;5.42;118.99
584;HTU21D;27024;54.068;12.116;2024-03-02T03:47:33;5.41;118.99
584;HTU21D;27024;54.068;12.116;2024-03-02T03:50:00;5.42;118.99
584;HTU21D;27024;54.068;12.116;2024-03-02T03:52:28;5.43;118.99
584;HTU21D;27024;54.068;12.116;2024-03-02T03:54:55;5.40;118.99
584;HTU21D;27024;54.068;12.116;2024-03-02T03:57:22;5.40;118.99
584;HTU21D;27024;54.068;12.116;2024-03-02T03:59:49;5.43;118.99
584;HTU21D;27024;54.068;12.116;2024-03-02T04:02:16;5.47;118.99
584;HTU21D;27024;54.068;12.116;2024-03-02T04:04:43;5.43;118.99
584;HTU21D;27024;54.068;12.116;2024-03-02T04:07:10;5.45;118.99
584;HTU21D;27024;54.068;12.116;2024-03-02T04:09:37;5.46;118.99
584;HTU21D;27024;54.068;12.116;2024-03-02T04:12:04;5.50;118.99
584;HTU21D;27024;54.068;12.116;2024-03-02T04:14:31;5.52;118.99
584;HTU21D;27024;54.068;12.116;2024-03-02T04:16:58;5.51;118.99
584;HTU21D;27024;54.068;12.116;2024-03-02T04:19:26;5.50;118.99
584;HTU21D;27024;54.068;12.116;2024-03-02T04:21:53;5.52;118.99
584;HTU21D;27024;54.068;12.116;2024-03-02T04:24:20;5.59;118.99
584;HTU21D;27024;54.068;12.116;2024-03-02T04:26:47;5.59;118.99
584;HTU21D;27024;54.068;12.116;2024-03-02T04:29:14;5.62;118.99
584;HTU21D;27024;54.068;12.116;2024-03-02T04:31:41;5.64;118.99
584;HTU21D;27024;54.068;12.116;2024-03-02T04:34:08;5.63;118.99
584;HTU21D;27024;54.068;12.116;2024-03-02T04:36:36;5.69;118.99
584;HTU21D;27024;54.068;12.116;2024-03-02T04:39:03;5.53;118.99
584;HTU21D;27024;54.068;12.116;2024-03-02T04:41:30;5.56;118.99
584;HTU21D;27024;54.068;12.116;2024-03-02T04:43:57;5.51;118.99
584;HTU21D;27024;54.068;12.116;2024-03-02T04:46:23;5.51;118.99
584;HTU21D;27024;54.068;12.116;2024-03-02T04:48:51;5.65;118.99
584;HTU21D;27024;54.068;12.116;2024-03-02T04:51:22;5.67;118.99
584;HTU21D;27024;54.068;12.116;2024-03-02T04:53:52;5.67;118.99
584;HTU21D;27024;54.068;12.116;2024-03-02T04:56:19;5.69;118.99
584;HTU21D;27024;54.068;12.116;2024-03-02T04:59:07;5.69;118.99
584;HTU21D;27024;54.068;12.116;2024-03-02T05:01:33;5.72;118.99
584;HTU21D;27024;54.068;12.116;2024-03-02T05:04:00;5.80;118.99
584;HTU21D;27024;54.068;12.116;2024-03-02T05:06:27;5.90;118.99
584;HTU21D;27024;54.068;12.116;2024-03-02T05:08:55;5.87;118.99
584;HTU21D;27024;54.068;12.116;2024-03-02T05:11:21;5.89;118.99
584;HTU21D;27024;54.068;12.116;2024-03-02T05:14:05;5.87;118.99
584;HTU21D;27024;54.068;12.116;2024-03-02T05:16:35;6.05;118.99
584;HTU21D;27024;54.068;12.116;2024-03-02T05:19:05;5.92;118.99
584;HTU21D;27024;54.068;12.116;2024-03-02T05:21:34;5.91;118.99
584;HTU21D;27024;54.068;12.116;2024-03-02T05:24:01;5.87;118.99
584;HTU21D;27024;54.068;12.116;2024-03-02T05:26:29;5.84;118.99
584;HTU21D;27024;54.068;12.116;2024-03-02T05:28:56;5.84;118.99
584;HTU21D;27024;54.068;12.116;2024-03-02T05:31:23;5.80;118.99
584;HTU21D;27024;54.068;12.116;2024-03-02T05:33:49;5.93;118.99
584;HTU21D;27024;54.068;12.116;2024-03-02T05:36:23;5.92;118.99
584;HTU21D;27024;54.068;12.116;2024-03-02T05:38:50;5.95;118.99
584;HTU21D;27024;54.068;12.116;2024-03-02T05:41:17;5.99;118.99
584;HTU21D;27024;54.068;12.116;2024-03-02T05:43:44;6.00;118.99
584;HTU21D;27024;54.068;12.116;2024-03-02T05:46:11;5.95;118.99
584;HTU21D;27024;54.068;12.116;2024-03-02T05:48:38;5.97;118.99
584;HTU21D;27024;54.068;12.116;2024-03-02T05:51:05;5.97;118.99
584;HTU21D;27024;54.068;12.116;2024-03-02T05:53:32;5.99;118.99
584;HTU21D;27024;54.068;12.116;2024-03-02T05:56:00;6.06;118.99
584;HTU21D;27024;54.068;12.116;2024-03-02T05:58:31;6.08;118.99
584;HTU21D;27024;54.068;12.116;2024-03-02T06:01:17;6.13;118.99
584;HTU21D;27024;54.068;12.116;2024-03-02T06:03:45;6.13;118.99
584;HTU21D;27024;54.068;12.116;2024-03-02T06:06:12;6.15;118.99
584;HTU21D;27024;54.068;12.116;2024-03-02T06:08:39;6.26;118.99
584;HTU21D;27024;54.068;12.116;2024-03-02T06:11:06;6.25;118.99
584;HTU21D;27024;54.068;12.116;2024-03-02T06:13:33;6.38;118.99
584;HTU21D;27024;54.068;12.116;2024-03-02T06:16:00;6.31;118.99
584;HTU21D;27024;54.068;12.116;2024-03-02T06:18:28;6.22;118.99
584;HTU21D;27024;54.068;12.116;2024-03-02T06:20:54;6.36;118.99
584;HTU21D;27024;54.068;12.116;2024-03-02T06:23:21;6.44;118.99
584;HTU21D;27024;54.068;12.116;2024-03-02T06:25:49;6.34;118.99
584;HTU21D;27024;54.068;12.116;2024-03-02T06:28:15;6.36;118.99
584;HTU21D;27024;54.068;12.116;2024-03-02T06:30:43;6.40;118.99
584;HTU21D;27024;54.068;12.116;2024-03-02T06:33:10;6.34;118.99
584;HTU21D;27024;54.068;12.116;2024-03-02T06:35:37;6.35;118.99
584;HTU21D;27024;54.068;12.116;2024-03-02T06:38:04;6.35;118.99
584;HTU21D;27024;54.068;12.116;2024-03-02T06:40:31;6.39;118.99
584;HTU21D;27024;54.068;12.116;2024-03-02T06:42:58;6.52;118.99
584;HTU21D;27024;54.068;12.116;2024-03-02T06:45:25;6.53;118.99
584;HTU21D;27024;54.068;12.116;2024-03-02T06:47:53;6.49;118.99
584;HTU21D;27024;54.068;12.116;2024-03-02T06:50:20;6.53;118.99
584;HTU21D;27024;54.068;12.116;2024-03-02T06:52:47;6.45;118.99
584;HTU21D;27024;54.068;12.116;2024-03-02T06:55:14;6.42;118.99
584;HTU21D;27024;54.068;12.116;2024-03-02T06:57:41;6.45;118.99
584;HTU21D;27024;54.068;12.116;2024-03-02T07:00:08;6.46;118.99
584;HTU21D;27024;54.068;12.116;2024-03-02T07:02:36;6.53;118.99
584;HTU21D;27024;54.068;12.116;2024-03-02T07:05:03;6.55;118.99
584;HTU21D;27024;54.068;12.116;2024-03-02T07:07:31;6.56;118.99
584;HTU21D;27024;54.068;12.116;2024-03-02T07:09:58;6.63;118.99
584;HTU21D;27024;54.068;12.116;2024-03-02T07:12:26;6.57;118.99
584;HTU21D;27024;54.068;12.116;2024-03-02T07:14:53;6.52;118.99
584;HTU21D;27024;54.068;12.116;2024-03-02T07:17:32;6.61;118.99
584;HTU21D;27024;54.068;12.116;2024-03-02T07:19:59;6.56;118.99
584;HTU21D;27024;54.068;12.116;2024-03-02T07:22:26;6.58;118.99
584;HTU21D;27024;54.068;12.116;2024-03-02T07:24:53;6.60;118.99
584;HTU21D;27024;54.068;12.116;2024-03-02T07:27:21;6.60;118.99
584;HTU21D;27024;54.068;12.116;2024-03-02T07:29:48;6.67;118.99
584;HTU21D;27024;54.068;12.116;2024-03-02T07:32:15;6.68;118.99
584;HTU21D;27024;54.068;12.116;2024-03-02T07:34:42;6.69;118.99
584;HTU21D;27024;54.068;12.116;2024-03-02T07:37:08;6.73;118.99
584;HTU21D;27024;54.068;12.116;2024-03-02T07:39:37;6.74;118.99
584;HTU21D;27024;54.068;12.116;2024-03-02T07:42:04;6.71;118.99
584;HTU21D;27024;54.068;12.116;2024-03-02T07:44:31;6.71;118.99
584;HTU21D;27024;54.068;12.116;2024-03-02T07:46:58;6.71;118.99
584;HTU21D;27024;54.068;12.116;2024-03-02T07:49:25;6.89;118.99
584;HTU21D;27024;54.068;12.116;2024-03-02T07:51:52;6.84;118.99
584;HTU21D;27024;54.068;12.116;2024-03-02T07:54:19;6.79;118.99
584;HTU21D;27024;54.068;12.116;2024-03-02T07:56:47;6.88;118.99
584;HTU21D;27024;54.068;12.116;2024-03-02T07:59:14;7.05;118.99
584;HTU21D;27024;54.068;12.116;2024-03-02T08:01:42;7.13;118.99
584;HTU21D;27024;54.068;12.116;2024-03-02T08:04:08;7.01;118.99
584;HTU21D;27024;54.068;12.116;2024-03-02T08:06:35;6.98;118.99
584;HTU21D;27024;54.068;12.116;2024-03-02T08:09:03;6.98;118.99
584;HTU21D;27024;54.068;12.116;2024-03-02T08:11:36;7.03;118.99
584;HTU21D;27024;54.068;12.116;2024-03-02T08:14:05;7.03;118.99
584;HTU21D;27024;54.068;12.116;2024-03-02T08:16:33;7.11;118.99
584;HTU21D;27024;54.068;12.116;2024-03-02T08:19:01;7.15;118.99
584;HTU21D;27024;54.068;12.116;2024-03-02T08:21:30;7.28;118.99
584;HTU21D;27024;54.068;12.116;2024-03-02T08:23:59;7.28;118.99
584;HTU21D;27024;54.068;12.116;2024-03-02T08:26:27;7.29;118.99
584;HTU21D;27024;54.068;12.116;2024-03-02T08:29:00;7.34;118.99
584;HTU21D;27024;54.068;12.116;2024-03-02T08:31:30;7.62;118.99
584;HTU21D;27024;54.068;12.116;2024-03-02T08:33:58;7.96;118.99
584;HTU21D;27024;54.068;12.116;2024-03-02T08:36:25;7.54;118.99
584;HTU21D;27024;54.068;12.116;2024-03-02T08:38:53;7.52;118.99
584;HTU21D;27024;54.068;12.116;2024-03-02T08:41:20;7.58;118.99
584;HTU21D;27024;54.068;12.116;2024-03-02T08:43:48;7.74;118.99
584;HTU21D;27024;54.068;12.116;2024-03-02T08:46:20;7.62;118.99
584;HTU21D;27024;54.068;12.116;2024-03-02T08:48:47;7.94;118.99
584;HTU21D;27024;54.068;12.116;2024-03-02T08:51:14;7.99;118.99
584;HTU21D;27024;54.068;12.116;2024-03-02T08:53:41;7.90;118.99
584;HTU21D;27024;54.068;12.116;2024-03-02T08:56:09;7.88;118.99
584;HTU21D;27024;54.068;12.116;2024-03-02T08:58:36;7.91;118.99
584;HTU21D;27024;54.068;12.116;2024-03-02T09:01:03;7.96;118.99
584;HTU21D;27024;54.068;12.116;2024-03-02T09:03:30;8.15;118.99
584;HTU21D;27024;54.068;12.116;2024-03-02T09:06:00;8.20;118.99
584;HTU21D;27024;54.068;12.116;2024-03-02T09:08:29;8.11;118.99
584;HTU21D;27024;54.068;12.116;2024-03-02T09:10:56;8.11;118.99
584;HTU21D;27024;54.068;12.116;2024-03-02T09:13:24;8.21;118.99
584;HTU21D;27024;54.068;12.116;2024-03-02T09:15:51;8.35;118.99
584;HTU21D;27024;54.068;12.116;2024-03-02T09:18:18;8.38;118.99
584;HTU21D;27024;54.068;12.116;2024-03-02T09:20:48;8.35;118.99
584;HTU21D;27024;54.068;12.116;2024-03-02T09:23:15;8.27;118.99
584;HTU21D;27024;54.068;12.116;2024-03-02T09:25:42;8.37;118.99
584;HTU21D;27024;54.068;12.116;2024-03-02T09:28:09;8.35;118.99
584;HTU21D;27024;54.068;12.116;2024-03-02T09:30:36;8.33;118.99
584;HTU21D;27024;54.068;12.116;2024-03-02T09:33:04;8.34;118.99
584;HTU21D;27024;54.068;12.116;2024-03-02T09:35:34;8.38;118.99
584;HTU21D;27024;54.068;12.116;2024-03-02T09:38:01;8.32;118.99
584;HTU21D;27024;54.068;12.116;2024-03-02T09:40:30;8.34;118.99
584;HTU21D;27024;54.068;12.116;2024-03-02T09:42:57;8.34;118.99
584;HTU21D;27024;54.068;12.116;2024-03-02T09:45:26;8.30;118.99
584;HTU21D;27024;54.068;12.116;2024-03-02T09:47:54;8.31;118.99
584;HTU21D;27024;54.068;12.116;2024-03-02T09:50:21;8.14;118.99
584;HTU21D;27024;54.068;12.116;2024-03-02T09:52:49;8.28;118.99
584;HTU21D;27024;54.068;12.116;2024-03-02T09:55:17;8.45;118.99
584;HTU21D;27024;54.068;12.116;2024-03-02T09:57:46;8.21;118.99
584;HTU21D;27024;54.068;12.116;2024-03-02T10:00:15;8.50;118.99
584;HTU21D;27024;54.068;12.116;2024-03-02T10:02:42;8.56;118.99
584;HTU21D;27024;54.068;12.116;2024-03-02T10:05:10;8.36;118.99
584;HTU21D;27024;54.068;12.116;2024-03-02T10:07:38;8.32;118.99
584;HTU21D;27024;54.068;12.116;2024-03-02T10:10:13;8.30;118.99
584;HTU21D;27024;54.068;12.116;2024-03-02T10:12:41;8.35;118.99
584;HTU21D;27024;54.068;12.116;2024-03-02T10:15:08;8.29;118.99
584;HTU21D;27024;54.068;12.116;2024-03-02T10:17:36;8.27;118.99
584;HTU21D;27024;54.068;12.116;2024-03-02T10:20:25;8.18;118.99
584;HTU21D;27024;54.068;12.116;2024-03-02T10:22:53;8.21;118.99
584;HTU21D;27024;54.068;12.116;2024-03-02T10:25:33;8.17;118.99
584;HTU21D;27024;54.068;12.116;2024-03-02T10:28:03;8.24;118.99
584;HTU21D;27024;54.068;12.116;2024-03-02T10:30:33;8.37;118.99
584;HTU21D;27024;54.068;12.116;2024-03-02T10:33:04;8.31;118.99
584;HTU21D;27024;54.068;12.116;2024-03-02T10:35:32;8.41;118.99
584;HTU21D;27024;54.068;12.116;2024-03-02T10:38:06;8.41;118.99
584;HTU21D;27024;54.068;12.116;2024-03-02T10:40:33;8.53;118.99
584;HTU21D;27024;54.068;12.116;2024-03-02T10:43:01;8.53;118.99
584;HTU21D;27024;54.068;12.116;2024-03-02T10:45:32;8.52;118.99
584;HTU21D;27024;54.068;12.116;2024-03-02T10:48:01;8.23;118.99
584;HTU21D;27024;54.068;12.116;2024-03-02T10:50:28;8.26;118.99
584;HTU21D;27024;54.068;12.116;2024-03-02T10:52:56;8.21;118.99
584;HTU21D;27024;54.068;12.116;2024-03-02T10:55:23;8.32;118.99
584;HTU21D;27024;54.068;12.116;2024-03-02T10:57:52;8.48;118.99
584;HTU21D;27024;54.068;12.116;2024-03-02T11:00:25;8.44;118.99
584;HTU21D;27024;54.068;12.116;2024-03-02T11:03:01;8.53;118.99
584;HTU21D;27024;54.068;12.116;2024-03-02T11:05:33;8.64;118.99
584;HTU21D;27024;54.068;12.116;2024-03-02T11:08:07;8.62;118.99
584;HTU21D;27024;54.068;12.116;2024-03-02T11:10:37;8.67;118.99
584;HTU21D;27024;54.068;12.116;2024-03-02T11:13:05;8.79;118.99
584;HTU21D;27024;54.068;12.116;2024-03-02T11:15:35;8.88;118.99
584;HTU21D;27024;54.068;12.116;2024-03-02T11:18:06;8.89;118.99
584;HTU21D;27024;54.068;12.116;2024-03-02T11:20:40;8.89;118.99
584;HTU21D;27024;54.068;12.116;2024-03-02T11:23:09;8.76;118.99
584;HTU21D;27024;54.068;12.116;2024-03-02T11:25:36;8.95;118.99
584;HTU21D;27024;54.068;12.116;2024-03-02T11:28:06;9.23;118.99
584;HTU21D;27024;54.068;12.116;2024-03-02T11:33:06;9.03;118.99
584;HTU21D;27024;54.068;12.116;2024-03-02T11:35:44;8.86;118.99
584;HTU21D;27024;54.068;12.116;2024-03-02T11:38:14;8.85;118.99
584;HTU21D;27024;54.068;12.116;2024-03-02T11:40:41;8.97;118.99
584;HTU21D;27024;54.068;12.116;2024-03-02T11:43:09;9.16;118.99
584;HTU21D;27024;54.068;12.116;2024-03-02T11:45:37;9.09;118.99
584;HTU21D;27024;54.068;12.116;2024-03-02T11:48:14;9.18;118.99
584;HTU21D;27024;54.068;12.116;2024-03-02T11:50:49;9.33;118.99
584;HTU21D;27024;54.068;12.116;2024-03-02T11:53:18;9.69;118.99
584;HTU21D;27024;54.068;12.116;2024-03-02T11:55:45;9.96;118.99
584;HTU21D;27024;54.068;12.116;2024-03-02T11:58:16;9.57;118.99
584;HTU21D;27024;54.068;12.116;2024-03-02T12:00:54;9.48;118.99
584;HTU21D;27024;54.068;12.116;2024-03-02T12:03:23;9.51;118.99
584;HTU21D;27024;54.068;12.116;2024-03-02T12:05:53;9.63;118.99
584;HTU21D;27024;54.068;12.116;2024-03-02T12:08:20;9.77;118.99
584;HTU21D;27024;54.068;12.116;2024-03-02T12:11:14;10.06;118.99
584;HTU21D;27024;54.068;12.116;2024-03-02T12:13:51;10.46;118.99
584;HTU21D;27024;54.068;12.116;2024-03-02T12:16:25;10.93;118.99
584;HTU21D;27024;54.068;12.116;2024-03-02T12:18:52;11.34;118.99
584;HTU21D;27024;54.068;12.116;2024-03-02T12:21:19;11.71;118.99
584;HTU21D;27024;54.068;12.116;2024-03-02T12:23:46;11.96;118.99
584;HTU21D;27024;54.068;12.116;2024-03-02T12:26:13;12.38;118.99
584;HTU21D;27024;54.068;12.116;2024-03-02T12:28:40;11.74;118.99
584;HTU21D;27024;54.068;12.116;2024-03-02T12:31:07;11.83;118.99
584;HTU21D;27024;54.068;12.116;2024-03-02T12:33:35;11.81;118.99
584;HTU21D;27024;54.068;12.116;2024-03-02T12:36:02;12.01;118.99
584;HTU21D;27024;54.068;12.116;2024-03-02T12:38:29;12.17;118.99
584;HTU21D;27024;54.068;12.116;2024-03-02T12:40:57;11.97;118.99
584;HTU21D;27024;54.068;12.116;2024-03-02T12:43:24;12.12;118.99
584;HTU21D;27024;54.068;12.116;2024-03-02T12:45:51;12.05;118.99
584;HTU21D;27024;54.068;12.116;2024-03-02T12:48:18;12.57;118.99
584;HTU21D;27024;54.068;12.116;2024-03-02T12:50:45;12.87;118.99
584;HTU21D;27024;54.068;12.116;2024-03-02T12:53:15;13.16;118.99
584;HTU21D;27024;54.068;12.116;2024-03-02T12:55:42;13.33;118.99
584;HTU21D;27024;54.068;12.116;2024-03-02T12:58:19;13.38;118.99
584;HTU21D;27024;54.068;12.116;2024-03-02T13:00:48;13.61;118.99
584;HTU21D;27024;54.068;12.116;2024-03-02T13:03:18;13.85;118.99
584;HTU21D;27024;54.068;12.116;2024-03-02T13:05:50;13.88;118.99
584;HTU21D;27024;54.068;12.116;2024-03-02T13:08:17;14.03;118.99
584;HTU21D;27024;54.068;12.116;2024-03-02T13:10:44;14.09;118.99
584;HTU21D;27024;54.068;12.116;2024-03-02T13:13:12;13.84;118.99
584;HTU21D;27024;54.068;12.116;2024-03-02T13:15:39;14.24;118.99
584;HTU21D;27024;54.068;12.116;2024-03-02T13:18:07;14.45;118.99
584;HTU21D;27024;54.068;12.116;2024-03-02T13:20:34;14.47;118.99
584;HTU21D;27024;54.068;12.116;2024-03-02T13:23:02;14.73;118.99
584;HTU21D;27024;54.068;12.116;2024-03-02T13:25:29;14.71;118.99
584;HTU21D;27024;54.068;12.116;2024-03-02T13:27:59;14.92;118.99
584;HTU21D;27024;54.068;12.116;2024-03-02T13:30:27;15.10;118.99
584;HTU21D;27024;54.068;12.116;2024-03-02T13:32:54;15.47;118.99
584;HTU21D;27024;54.068;12.116;2024-03-02T13:35:21;14.83;118.99
584;HTU21D;27024;54.068;12.116;2024-03-02T13:37:48;15.26;118.99
584;HTU21D;27024;54.068;12.116;2024-03-02T13:40:16;15.34;118.99
584;HTU21D;27024;54.068;12.116;2024-03-02T13:42:47;15.30;118.99
584;HTU21D;27024;54.068;12.116;2024-03-02T13:45:14;15.29;118.99
584;HTU21D;27024;54.068;12.116;2024-03-02T13:47:41;15.28;118.99
584;HTU21D;27024;54.068;12.116;2024-03-02T13:50:09;15.54;118.99
584;HTU21D;27024;54.068;12.116;2024-03-02T13:52:36;15.53;118.99
584;HTU21D;27024;54.068;12.116;2024-03-02T13:55:03;15.43;118.99
584;HTU21D;27024;54.068;12.116;2024-03-02T13:57:30;15.87;118.99
584;HTU21D;27024;54.068;12.116;2024-03-02T13:59:57;15.56;118.99
584;HTU21D;27024;54.068;12.116;2024-03-02T14:02:24;15.72;118.99
584;HTU21D;27024;54.068;12.116;2024-03-02T14:04:52;15.63;118.99
584;HTU21D;27024;54.068;12.116;2024-03-02T14:07:19;15.71;118.99
584;HTU21D;27024;54.068;12.116;2024-03-02T14:09:46;15.63;118.99
584;HTU21D;27024;54.068;12.116;2024-03-02T14:12:13;15.30;118.99
584;HTU21D;27024;54.068;12.116;2024-03-02T14:14:40;16.27;118.99
584;HTU21D;27024;54.068;12.116;2024-03-02T14:17:08;15.71;118.99
584;HTU21D;27024;54.068;12.116;2024-03-02T14:19:41;16.04;118.99
584;HTU21D;27024;54.068;12.116;2024-03-02T14:22:07;16.17;118.99
584;HTU21D;27024;54.068;12.116;2024-03-02T14:24:34;16.24;118.99
584;HTU21D;27024;54.068;12.116;2024-03-02T14:27:02;16.74;118.99
584;HTU21D;27024;54.068;12.116;2024-03-02T14:29:50;17.08;118.99
584;HTU21D;27024;54.068;12.116;2024-03-02T14:32:17;17.14;118.99
584;HTU21D;27024;54.068;12.116;2024-03-02T14:34:45;16.87;118.99
584;HTU21D;27024;54.068;12.116;2024-03-02T14:37:14;17.07;118.99
584;HTU21D;27024;54.068;12.116;2024-03-02T14:39:42;17.28;118.99
584;HTU21D;27024;54.068;12.116;2024-03-02T14:42:09;16.99;118.99
584;HTU21D;27024;54.068;12.116;2024-03-02T14:44:36;16.78;118.99
584;HTU21D;27024;54.068;12.116;2024-03-02T14:47:03;16.94;118.99
584;HTU21D;27024;54.068;12.116;2024-03-02T14:49:31;16.17;118.99
584;HTU21D;27024;54.068;12.116;2024-03-02T14:51:58;16.95;118.99
584;HTU21D;27024;54.068;12.116;2024-03-02T14:54:24;16.88;118.99
584;HTU21D;27024;54.068;12.116;2024-03-02T14:56:51;16.72;118.99
584;HTU21D;27024;54.068;12.116;2024-03-02T14:59:18;16.62;118.99
584;HTU21D;27024;54.068;12.116;2024-03-02T15:01:46;16.19;118.99
584;HTU21D;27024;54.068;12.116;2024-03-02T15:04:14;15.80;118.99
584;HTU21D;27024;54.068;12.116;2024-03-02T15:06:46;15.80;118.99
584;HTU21D;27024;54.068;12.116;2024-03-02T15:09:13;15.62;118.99
584;HTU21D;27024;54.068;12.116;2024-03-02T15:11:40;15.82;118.99
584;HTU21D;27024;54.068;12.116;2024-03-02T15:14:07;15.25;118.99
584;HTU21D;27024;54.068;12.116;2024-03-02T15:16:34;14.95;118.99
584;HTU21D;27024;54.068;12.116;2024-03-02T15:19:01;14.87;118.99
584;HTU21D;27024;54.068;12.116;2024-03-02T15:21:28;14.67;118.99
584;HTU21D;27024;54.068;12.116;2024-03-02T15:23:55;14.42;118.99
584;HTU21D;27024;54.068;12.116;2024-03-02T15:26:22;14.04;118.99
584;HTU21D;27024;54.068;12.116;2024-03-02T15:28:49;14.25;118.99
584;HTU21D;27024;54.068;12.116;2024-03-02T15:31:16;14.32;118.99
584;HTU21D;27024;54.068;12.116;2024-03-02T15:33:44;13.79;118.99
584;HTU21D;27024;54.068;12.116;2024-03-02T15:36:11;13.70;118.99
584;HTU21D;27024;54.068;12.116;2024-03-02T15:38:38;13.73;118.99